Maersk Danang — A8PS5 — position and weather

sailwx.info

Track history (hours):
 
Tides and Currents Weather Stations Pressure Air Temp Water Temp Dewpoint Dewpoint Depression Visibility Wind Speed Wind Dir Waves Ship Positions

Maersk Danang

Last reported at 2016-May-04 13:07 UTC. Time now 2016-May-04 23:10 UTC.
Position N 32°44' E 126°39'.

Length 293 m; draft 8.8 m.

Type: Cargo ship. MMSI: 636091595.

Date/timePositionNaut miles runAvg speedWind from/ knotsBaromVisibWave heightAir tempDewpointWater temp
2016-May-04 13:07N 32°44' E 126°39'  
2016-May-01 08:29N 32°36' E 134°38'28317.5
2016-Apr-30 16:20N 35°00' E 139°32'1417.2
2016-Apr-30 15:33N 35°09' E 139°44'1211.6
2016-Apr-30 14:33N 35°20' E 139°42'4 3.9
2016-Apr-30 13:31N 35°24' E 139°41'0 0.0
2016-Apr-30 12:31N 35°24' E 139°41'0 0.0
2016-Apr-30 11:31N 35°24' E 139°41'0 0.1
2016-Apr-30 10:33N 35°24' E 139°41'8 8.2
2016-Apr-30 09:34N 35°17' E 139°46'1010.4
2016-Apr-30 08:33N 35°06' E 139°45'1211.9
2016-Apr-30 07:33N 34°54' E 139°46'1313.3
2016-Apr-30 06:33N 34°54' E 140°02'1615.9
2016-Apr-30 05:32N 35°00' E 140°20'1515.5
2016-Apr-30 04:33N 35°10' E 140°35'1615.5
2016-Apr-30 03:31N 35°23' E 140°46'1615.3
2016-Apr-30 02:29N 35°36' E 140°57'  
Track history (hours):
 
Tides and Currents Weather Stations Pressure Air Temp Water Temp Dewpoint Dewpoint Depression Visibility Wind Speed Wind Dir Waves Ship Positions

Maersk Danang

Last reported at 2016-May-04 13:07 UTC. Time now 2016-May-04 23:10 UTC.
Position N 32°44' E 126°39'.

Length 293 m; draft 8.8 m.

Type: Cargo ship. MMSI: 636091595.

Date/timePositionNaut miles runAvg speedWind from/ knotsBaromVisibWave heightAir tempDewpointWater temp
2016-May-04 13:07N 32°44' E 126°39'  
2016-May-01 08:29N 32°36' E 134°38'28317.5
2016-Apr-30 16:20N 35°00' E 139°32'1417.2
2016-Apr-30 15:33N 35°09' E 139°44'1211.6
2016-Apr-30 14:33N 35°20' E 139°42'4 3.9
2016-Apr-30 13:31N 35°24' E 139°41'0 0.0
2016-Apr-30 12:31N 35°24' E 139°41'0 0.0
2016-Apr-30 11:31N 35°24' E 139°41'0 0.1
2016-Apr-30 10:33N 35°24' E 139°41'8 8.2
2016-Apr-30 09:34N 35°17' E 139°46'1010.4
2016-Apr-30 08:33N 35°06' E 139°45'1211.9
2016-Apr-30 07:33N 34°54' E 139°46'1313.3
2016-Apr-30 06:33N 34°54' E 140°02'1615.9
2016-Apr-30 05:32N 35°00' E 140°20'1515.5
2016-Apr-30 04:33N 35°10' E 140°35'1615.5
2016-Apr-30 03:31N 35°23' E 140°46'1615.3
2016-Apr-30 02:29N 35°36' E 140°57'  

Dump ship's entire track history